Terminal Aerodrome Forecast
Issued by NWS Shreveport, LA

Home | Current Version | Previous Version | Text Only | Print | Product List | Glossary On
Versions: 1 2 3 4 5 6 7 8 9 10 11 12 13 14 15 16 17 18 19 20 21 22 23 24 25
000
FTUS44 KSHV 222347
TAFMLU
TAF
KMLU 222347Z 2300/2324 03003KT 1 1/2SM +RA BR BKN006 OVC050
     FM230100 03004KT 4SM BR OVC015
     FM230600 03003KT 4SM BR OVC007
     FM231500 35004KT P6SM OVC010
     FM231800 VRB05KT P6SM BKN050=

USA.gov is the U.S. government's official web portal to all federal, state and local government web resources and services.